Time;durP1;ratioP1;P1;durP2;ratioP2;P2;SDS_P1;SDS_P2;PMS_P1;PMS_P2;Temp;Humidity;BMP_temperature;BMP_pressure;BME280_temperature;BME280_humidity;BME280_pressure;Samples;Min_cycle;Max_cycle;Signal;HPM_P1;HPM_P2
2023/04/15 00:00:41;;;;;;;30.87;19.87;;;8.20;99.90;;;;;;5057884;28;20532;-69
2023/04/15 00:03:07;;;;;;;28.50;18.80;;;8.20;99.90;;;;;;5036148;28;20468;-69
2023/04/15 00:05:33;;;;;;;27.10;20.33;;;8.20;99.90;;;;;;5044438;28;20184;-69
2023/04/15 00:08:00;;;;;;;31.63;20.40;;;8.20;99.90;;;;;;5060372;28;20444;-69
2023/04/15 00:10:26;;;;;;;34.77;19.77;;;8.20;99.90;;;;;;5059050;28;20428;-69
2023/04/15 00:12:52;;;;;;;30.63;19.17;;;8.20;99.90;;;;;;5057691;28;20455;-68
2023/04/15 00:15:18;;;;;;;33.53;21.40;;;8.20;99.90;;;;;;5061153;28;20925;-68
2023/04/15 00:17:43;;;;;;;29.90;20.37;;;8.20;99.90;;;;;;5068337;28;20661;-70
2023/04/15 00:20:09;;;;;;;28.90;19.50;;;8.20;99.90;;;;;;5059658;28;20435;-69
2023/04/15 00:22:35;;;;;;;30.53;20.23;;;8.20;99.90;;;;;;5049036;28;20230;-69
2023/04/15 00:25:01;;;;;;;35.40;22.07;;;8.20;99.90;;;;;;5061359;28;20408;-69
2023/04/15 00:27:26;;;;;;;36.03;23.13;;;8.20;99.90;;;;;;5056065;28;20174;-69
2023/04/15 00:29:52;;;;;;;28.47;18.97;;;8.20;99.90;;;;;;5064385;28;20175;-70
2023/04/15 00:32:19;;;;;;;32.53;22.10;;;8.20;99.90;;;;;;5061091;28;20199;-69
2023/04/15 00:34:45;;;;;;;32.57;21.40;;;8.20;99.90;;;;;;5063215;28;20169;-69
2023/04/15 00:37:10;;;;;;;30.13;20.03;;;8.20;99.90;;;;;;5049437;28;20418;-69
2023/04/15 00:39:36;;;;;;;32.93;19.70;;;8.20;99.90;;;;;;5033169;28;20419;-70
2023/04/15 00:42:03;;;;;;;29.50;20.73;;;8.20;99.90;;;;;;5036664;28;20179;-70
2023/04/15 00:44:29;;;;;;;28.53;19.57;;;8.20;99.90;;;;;;5064459;28;20255;-69
2023/04/15 00:46:57;;;;;;;38.23;21.77;;;8.20;99.90;;;;;;5063443;28;20816;-70
2023/04/15 00:49:23;;;;;;;34.17;20.47;;;8.10;99.90;;;;;;5065808;28;20401;-69
2023/04/15 00:51:49;;;;;;;30.30;18.57;;;8.20;99.90;;;;;;5067275;28;20457;-70
2023/04/15 00:54:15;;;;;;;35.47;21.00;;;8.20;99.90;;;;;;5069216;28;20427;-70
2023/04/15 00:56:41;;;;;;;34.40;21.23;;;8.20;99.90;;;;;;5067483;28;20186;-70
2023/04/15 00:59:08;;;;;;;38.80;23.10;;;8.20;99.90;;;;;;5064368;28;20167;-70
2023/04/15 01:01:35;;;;;;;37.90;22.37;;;8.20;99.90;;;;;;5053310;28;20425;-70
2023/04/15 01:04:01;;;;;;;32.73;20.83;;;8.20;99.90;;;;;;5049024;28;20471;-70
2023/04/15 01:06:28;;;;;;;31.40;21.87;;;8.20;99.90;;;;;;5049182;28;20476;-69
2023/04/15 01:08:55;;;;;;;41.57;24.17;;;8.20;99.90;;;;;;5056252;28;20401;-70
2023/04/15 01:11:22;;;;;;;30.27;19.40;;;8.20;99.90;;;;;;5064319;28;20453;-69
2023/04/15 01:13:49;;;;;;;42.27;22.93;;;8.20;99.90;;;;;;5057493;28;20776;-70
2023/04/15 01:16:16;;;;;;;36.43;22.00;;;8.20;99.90;;;;;;5061976;28;20436;-69
2023/04/15 01:18:42;;;;;;;44.13;23.00;;;8.20;99.90;;;;;;5054522;28;20435;-69
2023/04/15 01:21:07;;;;;;;36.57;23.23;;;8.20;99.90;;;;;;5060661;28;20443;-69
2023/04/15 01:23:37;;;;;;;32.93;21.37;;;8.20;99.90;;;;;;5061876;28;20434;-69
2023/04/15 01:26:03;;;;;;;33.70;23.43;;;8.20;99.90;;;;;;5062906;28;20245;-69
2023/04/15 01:28:30;;;;;;;38.47;22.97;;;8.20;99.90;;;;;;5065696;28;21101;-69
2023/04/15 01:31:13;;;;;;;35.93;22.90;;;8.20;99.90;;;;;;5064668;28;20782;-69
2023/04/15 01:33:41;;;;;;;39.37;21.63;;;8.20;99.90;;;;;;5043899;28;20563;-69
2023/04/15 01:36:08;;;;;;;40.67;23.37;;;8.20;99.90;;;;;;5044900;28;20935;-70
2023/04/15 01:38:35;;;;;;;39.70;22.60;;;8.20;99.90;;;;;;5065079;28;20414;-69
2023/04/15 01:41:01;;;;;;;40.80;24.60;;;8.20;99.90;;;;;;5066097;28;20923;-70
2023/04/15 01:43:27;;;;;;;42.30;24.10;;;8.20;99.90;;;;;;5062316;28;20426;-69
2023/04/15 01:45:52;;;;;;;42.13;22.83;;;8.20;99.90;;;;;;5067206;28;20177;-69
2023/04/15 01:48:18;;;;;;;41.57;24.03;;;8.20;99.90;;;;;;5063871;28;20421;-69
2023/04/15 01:50:45;;;;;;;36.20;22.90;;;8.20;99.90;;;;;;5067353;28;20685;-69
2023/04/15 01:53:10;;;;;;;44.00;23.70;;;8.20;99.90;;;;;;5040427;28;20249;-69
2023/04/15 01:55:36;;;;;;;41.17;23.37;;;8.20;99.90;;;;;;5064691;28;20912;-69
2023/04/15 01:58:02;;;;;;;41.50;23.63;;;8.20;99.90;;;;;;5061654;28;20175;-69
2023/04/15 02:00:28;;;;;;;41.17;23.93;;;8.20;99.90;;;;;;5064941;28;20176;-71
2023/04/15 02:02:54;;;;;;;41.20;23.37;;;8.20;99.90;;;;;;5062198;28;20461;-69
2023/04/15 02:05:19;;;;;;;40.10;22.30;;;8.20;99.90;;;;;;5059923;28;20415;-68
2023/04/15 02:07:45;;;;;;;44.10;22.83;;;8.20;99.90;;;;;;5065609;28;20650;-69
2023/04/15 02:10:15;;;;;;;39.03;22.73;;;8.20;99.90;;;;;;5050173;28;20241;-68
2023/04/15 02:12:40;;;;;;;40.57;25.40;;;8.20;99.90;;;;;;5036574;28;20211;-68
2023/04/15 02:15:07;;;;;;;40.30;24.63;;;8.20;99.90;;;;;;5038100;28;20427;-68
2023/04/15 02:17:34;;;;;;;43.40;23.93;;;8.20;99.90;;;;;;5049164;28;20763;-69
2023/04/15 02:20:00;;;;;;;40.60;24.30;;;8.20;99.90;;;;;;5063258;28;20785;-69
2023/04/15 02:22:26;;;;;;;38.10;21.77;;;8.20;99.90;;;;;;5059001;28;20459;-69
2023/04/15 02:24:52;;;;;;;40.37;25.40;;;8.20;99.90;;;;;;5065784;28;20261;-69
2023/04/15 02:27:18;;;;;;;43.83;24.43;;;8.20;99.90;;;;;;5062359;28;20485;-69
2023/04/15 02:29:44;;;;;;;38.40;24.23;;;8.20;99.90;;;;;;5057395;28;20221;-68
2023/04/15 02:32:13;;;;;;;41.17;20.87;;;8.20;99.90;;;;;;5058421;28;20205;-69
2023/04/15 02:34:41;;;;;;;44.10;22.27;;;8.20;99.90;;;;;;5035273;28;20433;-69
2023/04/15 02:37:08;;;;;;;40.47;22.87;;;8.20;99.90;;;;;;5033900;28;20479;-68
2023/04/15 02:39:34;;;;;;;38.37;23.93;;;8.20;99.90;;;;;;5050785;28;20444;-70
2023/04/15 02:41:59;;;;;;;45.30;23.90;;;8.20;99.90;;;;;;5056751;28;20414;-69
2023/04/15 02:44:26;;;;;;;39.93;21.30;;;8.20;99.90;;;;;;5054819;28;20194;-69
2023/04/15 02:46:53;;;;;;;38.53;22.70;;;8.20;99.90;;;;;;5062206;28;20821;-68
2023/04/15 02:49:22;;;;;;;44.33;22.93;;;8.20;99.90;;;;;;5056066;28;20408;-69
2023/04/15 02:51:48;;;;;;;38.93;23.60;;;8.20;99.90;;;;;;5064889;28;20543;-69
2023/04/15 02:54:18;;;;;;;45.27;23.80;;;8.20;99.90;;;;;;5058374;28;20433;-68
2023/04/15 02:56:44;;;;;;;40.83;23.40;;;8.20;99.90;;;;;;5061276;28;20791;-69
2023/04/15 02:59:11;;;;;;;45.73;24.37;;;8.20;99.90;;;;;;5037062;28;21228;-69
2023/04/15 03:01:36;;;;;;;39.87;22.73;;;8.30;99.90;;;;;;5041772;28;20552;-69
2023/04/15 03:04:02;;;;;;;44.47;24.20;;;8.30;99.90;;;;;;5061465;28;20462;-69
2023/04/15 03:06:27;;;;;;;39.47;24.27;;;8.30;99.90;;;;;;5051288;28;20172;-69
2023/04/15 03:08:53;;;;;;;43.67;24.60;;;8.30;99.90;;;;;;5055419;28;20189;-69
2023/04/15 03:11:20;;;;;;;37.70;22.73;;;8.30;99.90;;;;;;5035919;28;20661;-69
2023/04/15 03:13:46;;;;;;;37.20;21.40;;;8.30;99.90;;;;;;5039832;28;20219;-69
2023/04/15 03:16:11;;;;;;;40.40;23.27;;;8.30;99.90;;;;;;5055619;28;20409;-69
2023/04/15 03:18:37;;;;;;;37.43;21.93;;;8.30;99.90;;;;;;5053533;28;20434;-69
2023/04/15 03:21:03;;;;;;;31.10;20.50;;;8.30;99.90;;;;;;5033219;28;20185;-69
2023/04/15 03:23:30;;;;;;;37.90;23.57;;;8.30;99.90;;;;;;5053880;28;20190;-69
2023/04/15 03:25:56;;;;;;;35.93;23.47;;;8.40;99.90;;;;;;5061942;28;20251;-69
2023/04/15 03:28:22;;;;;;;33.13;21.77;;;8.40;99.90;;;;;;5057192;28;20416;-69
2023/04/15 03:30:48;;;;;;;32.80;21.37;;;8.40;99.90;;;;;;5066961;28;20402;-69
2023/04/15 03:33:13;;;;;;;36.93;22.40;;;8.40;99.90;;;;;;5062151;28;20274;-69
2023/04/15 03:35:39;;;;;;;39.80;23.10;;;8.40;99.90;;;;;;5063789;28;20203;-69
2023/04/15 03:38:05;;;;;;;32.10;21.37;;;8.40;99.90;;;;;;5043990;28;20686;-70
2023/04/15 03:40:30;;;;;;;32.73;21.53;;;8.40;99.90;;;;;;5038239;28;20177;-70
2023/04/15 03:42:56;;;;;;;29.17;19.97;;;8.40;99.90;;;;;;5045281;28;20260;-70
2023/04/15 03:45:22;;;;;;;39.27;22.17;;;8.40;99.90;;;;;;5056981;28;20199;-69
2023/04/15 03:47:48;;;;;;;33.50;22.17;;;8.40;99.90;;;;;;5063963;28;20645;-70
2023/04/15 03:50:14;;;;;;;39.83;22.97;;;8.40;99.90;;;;;;5058305;28;20167;-69
2023/04/15 03:52:40;;;;;;;29.17;20.50;;;8.40;99.90;;;;;;5067450;28;20459;-69
2023/04/15 03:55:07;;;;;;;35.33;18.53;;;8.50;99.90;;;;;;5064059;28;20401;-69
2023/04/15 03:57:36;;;;;;;30.10;18.80;;;8.50;99.90;;;;;;5063622;28;20163;-69
2023/04/15 04:00:04;;;;;;;37.60;23.23;;;8.50;99.90;;;;;;5045318;28;20908;-69
2023/04/15 04:02:29;;;;;;;36.70;21.70;;;8.50;99.90;;;;;;5049774;28;20412;-70
2023/04/15 04:04:55;;;;;;;32.97;20.40;;;8.50;99.90;;;;;;5063084;28;20773;-70
2023/04/15 04:07:23;;;;;;;33.50;20.93;;;8.50;99.90;;;;;;5060042;28;20179;-70
2023/04/15 04:09:48;;;;;;;35.30;20.93;;;8.50;99.90;;;;;;5065812;28;20174;-71
2023/04/15 04:12:14;;;;;;;29.57;19.07;;;8.50;99.90;;;;;;5065854;28;20458;-69
2023/04/15 04:14:40;;;;;;;32.33;19.97;;;8.50;99.90;;;;;;5067760;28;20194;-71
2023/04/15 04:17:05;;;;;;;28.77;20.40;;;8.60;99.90;;;;;;5036465;28;20621;-71
2023/04/15 04:19:31;;;;;;;27.23;19.07;;;8.60;99.90;;;;;;5046631;28;20243;-69
2023/04/15 04:21:57;;;;;;;34.97;21.13;;;8.60;99.90;;;;;;5039686;28;20541;-68
2023/04/15 04:24:22;;;;;;;29.90;19.80;;;8.60;99.90;;;;;;5058993;28;20196;-69
2023/04/15 04:26:48;;;;;;;34.33;19.00;;;8.60;99.90;;;;;;5062548;28;20185;-70
2023/04/15 04:29:13;;;;;;;35.03;21.53;;;8.60;99.90;;;;;;5062157;28;20175;-68
2023/04/15 04:31:39;;;;;;;29.03;19.97;;;8.60;99.90;;;;;;5061346;28;20559;-69
2023/04/15 04:34:05;;;;;;;35.53;19.87;;;8.60;99.90;;;;;;5065143;28;20239;-69
2023/04/15 04:36:31;;;;;;;30.17;19.90;;;8.60;99.90;;;;;;5059656;28;20700;-70
2023/04/15 04:38:56;;;;;;;26.23;19.73;;;8.60;99.90;;;;;;5055704;28;20880;-69
2023/04/15 04:41:22;;;;;;;24.17;17.57;;;8.60;99.90;;;;;;5034711;28;20282;-69
2023/04/15 04:43:47;;;;;;;29.07;20.33;;;8.60;99.90;;;;;;5058005;28;20198;-70
2023/04/15 04:46:13;;;;;;;30.93;18.70;;;8.70;99.90;;;;;;5065113;28;20182;-69
2023/04/15 04:48:39;;;;;;;28.27;19.40;;;8.70;99.90;;;;;;5059477;28;20596;-70
2023/04/15 04:51:05;;;;;;;29.23;18.30;;;8.70;99.90;;;;;;5066367;28;20237;-70
2023/04/15 04:53:31;;;;;;;27.00;19.47;;;8.70;99.90;;;;;;5059914;28;20434;-69
2023/04/15 04:55:57;;;;;;;26.50;17.03;;;8.70;99.90;;;;;;5066668;28;20474;-70
2023/04/15 04:58:22;;;;;;;29.13;17.87;;;8.80;99.90;;;;;;5040215;28;20634;-69
2023/04/15 05:00:48;;;;;;;33.47;20.27;;;8.80;99.90;;;;;;5049327;28;20450;-69
2023/04/15 05:03:13;;;;;;;24.03;16.80;;;8.80;99.90;;;;;;5060368;28;20267;-70
2023/04/15 05:05:40;;;;;;;28.47;18.50;;;8.80;99.90;;;;;;5056892;28;20663;-69
2023/04/15 05:08:06;;;;;;;27.27;19.53;;;8.80;99.90;;;;;;5063658;28;20170;-70
2023/04/15 05:10:31;;;;;;;28.60;18.57;;;8.90;99.90;;;;;;5060757;28;20902;-70
2023/04/15 05:12:57;;;;;;;31.70;17.40;;;8.90;99.90;;;;;;5063961;28;20466;-69
2023/04/15 05:15:23;;;;;;;21.27;16.70;;;8.90;99.90;;;;;;5051132;28;20269;-69
2023/04/15 05:17:49;;;;;;;22.37;15.83;;;8.90;99.90;;;;;;5050031;28;20182;-70
2023/04/15 05:20:14;;;;;;;29.63;16.83;;;8.90;99.90;;;;;;5056104;28;20422;-69
2023/04/15 05:22:41;;;;;;;26.00;16.63;;;8.90;99.90;;;;;;5050055;28;20681;-68
2023/04/15 05:25:10;;;;;;;27.20;17.87;;;8.90;99.90;;;;;;5034528;28;20652;-69
2023/04/15 05:27:36;;;;;;;23.70;16.83;;;9.00;99.90;;;;;;5047019;28;20436;-70
2023/04/15 05:30:02;;;;;;;21.97;16.87;;;9.00;99.90;;;;;;5062187;28;20472;-68
2023/04/15 05:32:27;;;;;;;26.53;18.10;;;9.00;99.90;;;;;;5069767;28;20204;-68
2023/04/15 05:34:55;;;;;;;24.60;17.13;;;9.10;99.90;;;;;;5066957;28;20195;-69
2023/04/15 05:37:21;;;;;;;34.03;18.70;;;9.10;99.90;;;;;;5066472;28;20255;-69
2023/04/15 05:39:47;;;;;;;21.20;16.20;;;9.10;99.90;;;;;;5071158;28;20426;-70
2023/04/15 05:42:13;;;;;;;24.73;16.70;;;9.10;99.90;;;;;;5060353;28;20217;-70
2023/04/15 05:44:39;;;;;;;19.27;17.20;;;9.10;99.90;;;;;;5034030;28;20440;-69
2023/04/15 05:47:06;;;;;;;19.47;16.00;;;9.20;99.90;;;;;;5055037;28;20237;-69
2023/04/15 05:49:31;;;;;;;20.70;15.30;;;9.20;99.90;;;;;;5065719;28;20179;-70
2023/04/15 05:51:57;;;;;;;21.00;15.07;;;9.30;99.90;;;;;;5065167;28;20449;-69
2023/04/15 05:54:22;;;;;;;25.43;15.30;;;9.30;99.90;;;;;;5065810;28;20907;-69
2023/04/15 05:56:48;;;;;;;17.63;14.33;;;9.40;99.90;;;;;;5064131;28;20174;-70
2023/04/15 05:59:14;;;;;;;20.57;14.03;;;9.40;99.90;;;;;;5064850;28;20170;-69
2023/04/15 06:01:40;;;;;;;19.37;15.70;;;9.50;99.90;;;;;;5061303;28;20242;-70
2023/04/15 06:04:05;;;;;;;21.50;15.20;;;9.50;99.90;;;;;;5046200;28;20559;-70
2023/04/15 06:06:34;;;;;;;18.73;13.53;;;9.50;99.90;;;;;;5060992;28;20175;-69
2023/04/15 06:08:59;;;;;;;17.30;13.13;;;9.70;99.90;;;;;;5061220;28;20224;-70
2023/04/15 06:11:26;;;;;;;16.17;12.77;;;9.70;99.90;;;;;;5056933;28;20883;-70
2023/04/15 06:13:51;;;;;;;19.17;14.53;;;9.80;99.90;;;;;;5055481;28;20193;-69
2023/04/15 06:16:17;;;;;;;12.77;11.47;;;9.90;99.90;;;;;;5060375;28;20771;-69
2023/04/15 06:18:42;;;;;;;17.60;12.50;;;9.90;99.90;;;;;;5062077;28;20171;-70
2023/04/15 06:21:08;;;;;;;20.27;12.97;;;9.90;99.90;;;;;;5056442;28;20229;-71
2023/04/15 06:23:35;;;;;;;17.03;12.87;;;9.90;99.90;;;;;;5042914;28;20209;-71
2023/04/15 06:26:01;;;;;;;15.17;11.20;;;10.00;99.90;;;;;;5036008;28;20461;-70
2023/04/15 06:28:27;;;;;;;12.63;11.23;;;10.00;99.90;;;;;;5047938;28;20507;-70
2023/04/15 06:30:53;;;;;;;16.83;12.67;;;10.10;99.90;;;;;;5057553;28;20504;-70
2023/04/15 06:33:19;;;;;;;14.60;12.47;;;10.20;99.90;;;;;;5062318;28;20235;-70
2023/04/15 06:35:44;;;;;;;13.80;11.73;;;10.20;99.90;;;;;;5059424;28;20414;-71
2023/04/15 06:38:10;;;;;;;13.93;11.83;;;10.30;99.90;;;;;;5063280;28;20175;-70
2023/04/15 06:40:36;;;;;;;12.93;11.03;;;10.30;99.90;;;;;;5064878;28;20175;-70
2023/04/15 06:43:03;;;;;;;15.17;11.30;;;10.50;99.90;;;;;;5065706;28;20444;-71
2023/04/15 06:45:30;;;;;;;11.97;9.73;;;10.60;99.90;;;;;;5048955;28;20195;-70
2023/04/15 06:47:55;;;;;;;15.10;11.37;;;10.60;99.90;;;;;;5056837;28;20907;-69
2023/04/15 06:50:21;;;;;;;12.03;9.90;;;10.70;99.90;;;;;;5064834;28;20405;-70
2023/04/15 06:52:46;;;;;;;12.90;10.70;;;10.80;99.90;;;;;;5064277;28;20206;-69
2023/04/15 06:55:12;;;;;;;9.97;8.20;;;10.80;99.90;;;;;;5067430;28;20195;-70
2023/04/15 06:57:38;;;;;;;9.87;8.87;;;10.80;99.90;;;;;;5067593;28;20245;-69
2023/04/15 07:00:04;;;;;;;10.00;8.30;;;10.90;99.90;;;;;;5063547;28;20174;-74
2023/04/15 07:02:30;;;;;;;12.60;11.30;;;10.80;99.90;;;;;;5052512;28;20174;-71
2023/04/15 07:04:55;;;;;;;10.60;9.47;;;11.00;99.90;;;;;;5050070;28;20505;-70
2023/04/15 07:07:21;;;;;;;9.43;8.43;;;11.10;99.90;;;;;;5065637;28;20294;-70
2023/04/15 07:09:47;;;;;;;10.73;8.47;;;11.30;99.90;;;;;;5051072;28;20186;-69
2023/04/15 07:12:12;;;;;;;9.40;7.67;;;11.30;99.90;;;;;;5050297;28;20233;-69
2023/04/15 07:14:38;;;;;;;10.40;8.50;;;11.20;99.90;;;;;;5048114;28;20258;-71
2023/04/15 07:17:04;;;;;;;12.10;10.90;;;11.30;99.90;;;;;;5059715;28;20200;-75
2023/04/15 07:19:29;;;;;;;9.37;8.47;;;11.20;99.90;;;;;;5055622;28;20661;-67
2023/04/15 07:21:55;;;;;;;10.63;8.50;;;11.10;99.90;;;;;;5064010;28;20253;-68
2023/04/15 07:24:22;;;;;;;12.57;9.23;;;11.00;99.90;;;;;;5055542;28;20253;-67
2023/04/15 07:26:47;;;;;;;10.07;9.00;;;11.00;99.90;;;;;;5059661;28;20413;-68
2023/04/15 07:29:13;;;;;;;8.67;7.87;;;10.80;99.90;;;;;;5057693;28;20427;-67
2023/04/15 07:31:40;;;;;;;10.53;9.40;;;10.80;99.90;;;;;;5044404;28;20207;-68
2023/04/15 07:34:06;;;;;;;13.00;9.03;;;10.90;99.90;;;;;;5058764;28;20190;-68
2023/04/15 07:36:32;;;;;;;12.43;9.10;;;10.80;99.90;;;;;;5064913;28;21129;-69
2023/04/15 07:38:57;;;;;;;13.13;10.00;;;10.80;99.90;;;;;;5057112;28;20420;-70
2023/04/15 07:41:23;;;;;;;14.20;10.07;;;10.70;99.90;;;;;;5058493;28;20182;-67
2023/04/15 07:43:48;;;;;;;13.67;9.60;;;10.70;99.90;;;;;;5053793;28;20600;-68
2023/04/15 07:46:14;;;;;;;12.03;10.60;;;10.70;99.90;;;;;;5055722;28;20204;-67
2023/04/15 07:48:41;;;;;;;17.80;10.93;;;10.70;99.90;;;;;;5045494;28;20278;-68
2023/04/15 07:51:07;;;;;;;13.63;9.80;;;10.60;99.90;;;;;;5050309;28;20425;-70
2023/04/15 07:53:33;;;;;;;15.07;11.23;;;10.70;99.90;;;;;;5061267;28;20460;-69
2023/04/15 07:55:58;;;;;;;12.97;10.07;;;10.60;99.90;;;;;;5059646;28;20421;-68
2023/04/15 07:58:24;;;;;;;15.57;10.63;;;10.60;99.90;;;;;;5064139;28;20250;-68
2023/04/15 08:00:50;;;;;;;11.87;9.93;;;10.50;99.90;;;;;;5041767;28;20175;-68
2023/04/15 08:03:16;;;;;;;11.73;9.70;;;10.50;99.90;;;;;;5035671;28;20499;-68
2023/04/15 08:05:41;;;;;;;12.33;9.50;;;10.60;99.90;;;;;;5041538;28;20421;-67
2023/04/15 08:08:07;;;;;;;10.33;9.27;;;10.70;99.90;;;;;;5059283;28;20175;-69
2023/04/15 08:10:33;;;;;;;11.63;9.90;;;10.60;99.90;;;;;;5063985;28;20675;-70
2023/04/15 08:12:59;;;;;;;14.10;10.83;;;10.60;99.90;;;;;;5060126;28;20252;-69
2023/04/15 08:15:26;;;;;;;11.60;10.13;;;10.60;99.90;;;;;;5049781;28;20739;-69
2023/04/15 08:17:51;;;;;;;12.23;10.57;;;10.60;99.90;;;;;;5049216;28;20460;-70
2023/04/15 08:20:19;;;;;;;13.20;11.20;;;10.60;99.90;;;;;;5050663;28;20482;-67
2023/04/15 08:22:50;;;;;;;12.23;10.50;;;10.60;99.90;;;;;;5038954;28;20206;-70
2023/04/15 08:25:16;;;;;;;13.23;11.37;;;10.60;99.90;;;;;;5045808;28;20925;-69
2023/04/15 08:27:41;;;;;;;10.80;9.57;;;10.60;99.90;;;;;;5060174;28;20405;-70
2023/04/15 08:30:08;;;;;;;12.30;9.30;;;10.60;99.90;;;;;;5061355;28;20190;-67
2023/04/15 08:32:34;;;;;;;11.37;8.87;;;10.40;99.90;;;;;;5062965;28;20216;-71
2023/04/15 08:34:59;;;;;;;12.30;10.70;;;10.50;99.90;;;;;;5061726;28;20423;-67
2023/04/15 08:37:25;;;;;;;14.37;11.17;;;10.40;99.90;;;;;;5062794;28;20645;-66
2023/04/15 08:39:51;;;;;;;15.07;9.47;;;10.50;99.90;;;;;;5060227;28;20175;-72
2023/04/15 08:42:22;;;;;;;12.10;9.80;;;10.40;99.90;;;;;;5033507;28;20446;-72
2023/04/15 08:44:48;;;;;;;13.50;11.20;;;10.50;99.90;;;;;;5046517;28;20593;-67
2023/04/15 08:47:16;;;;;;;15.70;12.93;;;10.60;99.90;;;;;;5051181;28;20444;-68
2023/04/15 08:49:42;;;;;;;15.10;10.60;;;10.60;99.90;;;;;;5051089;28;20436;-68
2023/04/15 08:52:09;;;;;;;14.33;11.20;;;10.50;99.90;;;;;;5056451;28;20599;-70
2023/04/15 08:54:35;;;;;;;14.63;11.33;;;10.60;99.90;;;;;;5061955;28;20432;-68
2023/04/15 08:57:01;;;;;;;14.73;11.03;;;10.60;99.90;;;;;;5061494;28;20757;-69
2023/04/15 08:59:31;;;;;;;12.43;10.57;;;10.60;99.90;;;;;;5045831;28;20428;-71
2023/04/15 09:01:57;;;;;;;13.50;11.90;;;10.50;99.90;;;;;;5046764;28;20469;-70
2023/04/15 09:04:23;;;;;;;15.77;11.93;;;10.60;99.90;;;;;;5061985;28;20463;-69
2023/04/15 09:06:48;;;;;;;13.90;11.40;;;10.60;99.90;;;;;;5057171;28;20904;-67
2023/04/15 09:09:14;;;;;;;19.67;12.70;;;10.60;99.90;;;;;;5058402;28;20175;-68
2023/04/15 09:11:41;;;;;;;15.83;11.70;;;10.50;99.90;;;;;;5060235;28;20271;-68
2023/04/15 09:14:07;;;;;;;14.20;12.73;;;10.50;99.90;;;;;;5065914;28;20210;-68
2023/04/15 09:17:01;;;;;;;13.30;11.00;;;10.60;99.90;;;;;;5066204;28;20451;-67
2023/04/15 09:19:27;;;;;;;14.87;12.37;;;10.60;99.90;;;;;;5062618;28;20700;-69
2023/04/15 09:21:58;;;;;;;14.97;12.17;;;10.60;99.90;;;;;;5065438;28;20440;-68
2023/04/15 09:24:25;;;;;;;14.97;12.00;;;10.60;99.90;;;;;;5061445;28;20436;-69
2023/04/15 09:26:55;;;;;;;15.70;12.10;;;10.60;99.90;;;;;;5059666;28;20431;-68
2023/04/15 09:29:24;;;;;;;13.03;11.60;;;10.60;99.90;;;;;;5058255;28;20435;-67
2023/04/15 09:31:50;;;;;;;12.67;10.30;;;10.70;99.90;;;;;;5061374;28;20453;-69
2023/04/15 09:34:16;;;;;;;13.73;12.27;;;10.70;99.90;;;;;;5061692;28;20930;-69
2023/04/15 09:36:50;;;;;;;14.13;11.50;;;10.70;99.90;;;;;;5062288;28;20437;-69
2023/04/15 09:39:16;;;;;;;11.50;10.30;;;10.70;99.90;;;;;;5070082;28;20176;-69
2023/04/15 09:41:43;;;;;;;13.27;10.77;;;10.70;99.90;;;;;;5062464;28;20413;-68
2023/04/15 09:44:25;;;;;;;12.10;10.60;;;10.70;99.90;;;;;;5058024;28;20207;-69
2023/04/15 09:46:50;;;;;;;13.30;10.50;;;10.80;99.90;;;;;;5050961;28;20429;-69
2023/04/15 09:49:16;;;;;;;13.53;11.73;;;10.80;99.90;;;;;;5060738;28;20420;-69
2023/04/15 09:51:43;;;;;;;10.77;9.50;;;10.80;99.90;;;;;;5063047;28;20210;-69
2023/04/15 09:54:08;;;;;;;13.07;11.40;;;10.70;99.90;;;;;;5060899;28;20872;-69
2023/04/15 09:56:40;;;;;;;13.20;11.43;;;10.70;99.90;;;;;;5067839;28;20425;-69
2023/04/15 09:59:06;;;;;;;14.20;11.17;;;10.70;99.90;;;;;;5063376;28;20210;-68
2023/04/15 10:01:32;;;;;;;12.33;11.00;;;10.70;99.90;;;;;;5059734;28;21099;-68
2023/04/15 10:04:02;;;;;;;12.97;11.37;;;10.70;99.90;;;;;;5052620;28;20500;-68
2023/04/15 10:06:29;;;;;;;16.80;11.60;;;10.60;99.90;;;;;;5035843;28;20456;-69
2023/04/15 10:08:57;;;;;;;11.73;10.50;;;10.50;99.90;;;;;;5035954;28;20433;-73
2023/04/15 10:11:23;;;;;;;15.30;11.53;;;10.60;99.90;;;;;;5051572;28;20455;-68
2023/04/15 10:13:50;;;;;;;14.27;11.23;;;10.60;99.90;;;;;;5067390;28;20986;-71
2023/04/15 10:16:20;;;;;;;14.13;10.90;;;10.60;99.90;;;;;;5058322;28;20770;-70
2023/04/15 10:18:49;;;;;;;12.60;10.10;;;10.60;99.90;;;;;;5059668;28;20473;-68
2023/04/15 10:21:17;;;;;;;12.23;10.90;;;10.60;99.90;;;;;;5060719;28;20465;-69
2023/04/15 10:23:46;;;;;;;16.20;12.20;;;10.60;99.90;;;;;;5051436;28;20439;-68
2023/04/15 10:26:13;;;;;;;12.60;11.33;;;10.70;99.90;;;;;;5035010;28;20453;-74
2023/04/15 10:28:39;;;;;;;13.47;11.80;;;10.60;99.90;;;;;;5039336;28;20429;-69
2023/04/15 10:31:06;;;;;;;14.87;11.03;;;10.60;99.90;;;;;;5050050;28;20417;-69
2023/04/15 10:33:32;;;;;;;14.60;12.07;;;10.80;99.90;;;;;;5040502;28;20853;-70
2023/04/15 10:35:59;;;;;;;13.43;12.03;;;10.70;99.90;;;;;;5041490;28;20437;-68
2023/04/15 10:38:38;;;;;;;13.67;11.73;;;10.60;99.90;;;;;;5048431;28;20742;-71
2023/04/15 10:41:24;;;;;;;11.30;10.10;;;10.50;99.90;;;;;;5048981;28;20402;-69
2023/04/15 10:44:00;;;;;;;15.13;11.73;;;10.60;99.90;;;;;;5030229;28;20472;-71
2023/04/15 10:46:45;;;;;;;12.40;10.73;;;10.60;99.90;;;;;;5044142;28;20428;-68
2023/04/15 10:49:15;;;;;;;14.50;12.97;;;10.70;99.90;;;;;;5037898;28;20418;-68
2023/04/15 10:51:44;;;;;;;15.20;11.00;;;10.70;99.90;;;;;;5045184;28;20454;-68
2023/04/15 10:54:15;;;;;;;15.43;12.47;;;10.80;99.90;;;;;;5044910;28;20441;-68
2023/04/15 10:56:42;;;;;;;11.63;10.53;;;10.90;99.90;;;;;;5056124;28;20785;-69
2023/04/15 10:59:09;;;;;;;13.50;12.10;;;10.90;99.90;;;;;;5046647;28;20424;-68
2023/04/15 11:01:58;;;;;;;13.87;10.80;;;10.80;99.90;;;;;;5044974;28;20416;-70
2023/04/15 11:04:52;;;;;;;12.20;10.03;;;10.90;99.90;;;;;;5042474;28;20471;-71
2023/04/15 11:07:33;;;;;;;16.10;11.87;;;10.80;99.90;;;;;;5048201;28;20923;-69
2023/04/15 11:09:58;;;;;;;13.50;11.40;;;10.80;99.90;;;;;;5040175;28;20418;-70
2023/04/15 11:12:36;;;;;;;13.20;11.80;;;10.70;99.90;;;;;;5048992;28;20456;-69
2023/04/15 11:15:31;;;;;;;13.53;12.23;;;10.70;99.90;;;;;;5042680;28;20171;-68
2023/04/15 11:18:18;;;;;;;14.50;12.37;;;10.70;99.90;;;;;;5034351;28;20471;-71
2023/04/15 11:20:55;;;;;;;13.27;11.90;;;10.60;99.90;;;;;;5039947;28;20390;-68
2023/04/15 11:23:32;;;;;;;14.83;12.63;;;10.60;99.90;;;;;;5047286;28;20860;-68
2023/04/15 11:25:59;;;;;;;14.53;12.60;;;10.60;99.90;;;;;;5048568;28;20401;-68
2023/04/15 11:28:27;;;;;;;12.13;10.87;;;10.50;99.90;;;;;;5040263;28;20411;-69
2023/04/15 11:30:54;;;;;;;12.57;11.10;;;10.50;99.90;;;;;;5036329;28;20517;-70
2023/04/15 11:33:21;;;;;;;13.87;11.90;;;10.50;99.90;;;;;;5040675;28;20484;-69
2023/04/15 11:35:47;;;;;;;14.20;12.30;;;10.50;99.90;;;;;;5034345;28;20426;-69
2023/04/15 11:38:14;;;;;;;13.93;12.50;;;10.50;99.90;;;;;;5038935;28;20436;-70
2023/04/15 11:40:41;;;;;;;13.13;11.63;;;10.50;99.90;;;;;;5047988;28;20397;-70
2023/04/15 11:43:14;;;;;;;14.17;12.40;;;10.50;99.90;;;;;;5044258;28;20430;-68
2023/04/15 11:45:57;;;;;;;14.10;11.27;;;10.40;99.90;;;;;;5033945;28;20438;-71
2023/04/15 11:48:25;;;;;;;13.40;12.00;;;10.50;99.90;;;;;;5037611;28;20406;-70
2023/04/15 11:50:55;;;;;;;11.13;10.03;;;10.50;99.90;;;;;;5039846;28;20505;-69
2023/04/15 11:53:22;;;;;;;17.70;11.27;;;10.50;99.90;;;;;;5046395;28;20525;-69
2023/04/15 11:55:52;;;;;;;12.63;11.33;;;10.50;99.90;;;;;;5037100;28;20430;-69
2023/04/15 11:58:23;;;;;;;12.37;11.13;;;10.50;99.90;;;;;;5031510;28;20433;-69
2023/04/15 12:00:48;;;;;;;15.53;13.37;;;10.50;99.90;;;;;;5034022;28;20415;-69
2023/04/15 12:03:23;;;;;;;14.80;11.80;;;10.60;99.90;;;;;;5037995;28;20985;-73
2023/04/15 12:06:07;;;;;;;20.50;13.47;;;10.50;99.90;;;;;;5037317;28;20724;-71
2023/04/15 12:08:54;;;;;;;12.90;11.00;;;10.60;99.90;;;;;;5046501;28;20412;-70
2023/04/15 12:11:26;;;;;;;13.00;11.60;;;10.70;99.90;;;;;;5044876;28;20446;-69
2023/04/15 12:13:58;;;;;;;15.63;12.53;;;10.60;99.90;;;;;;5045313;28;20987;-68
2023/04/15 12:16:24;;;;;;;12.53;10.90;;;10.50;99.90;;;;;;5013721;28;20531;-69
2023/04/15 12:18:52;;;;;;;17.83;12.60;;;10.50;99.90;;;;;;5033892;28;20489;-69
2023/04/15 12:21:22;;;;;;;14.50;11.73;;;10.60;99.90;;;;;;5045649;28;20409;-69
2023/04/15 12:23:54;;;;;;;14.90;11.83;;;10.50;99.90;;;;;;5038805;28;20441;-68
2023/04/15 12:26:32;;;;;;;13.70;11.47;;;10.60;99.90;;;;;;5048573;28;20411;-69
2023/04/15 12:29:02;;;;;;;10.87;9.77;;;10.60;99.90;;;;;;5043310;28;20861;-70
2023/04/15 12:31:27;;;;;;;12.10;10.30;;;10.70;99.90;;;;;;5034808;28;20402;-69
2023/04/15 12:34:00;;;;;;;11.73;10.40;;;10.60;99.90;;;;;;5037331;28;20445;-69